createdAt,value
2022-08-27T00:01:23.849Z,51.43
2022-08-27T00:03:51.564Z,51.50
2022-08-27T00:06:20.212Z,51.36
2022-08-27T00:08:48.638Z,51.35
2022-08-27T00:11:16.749Z,51.19
2022-08-27T00:13:44.616Z,51.35
2022-08-27T00:16:13.267Z,51.32
2022-08-27T00:18:42.436Z,51.38
2022-08-27T00:21:10.282Z,51.56
2022-08-27T00:23:38.161Z,51.35
2022-08-27T00:26:06.282Z,51.44
2022-08-27T00:28:34.152Z,51.22
2022-08-27T00:31:02.060Z,51.23
2022-08-27T00:33:30.556Z,51.33
2022-08-27T00:35:59.666Z,51.19
2022-08-27T00:38:27.368Z,51.29
2022-08-27T00:40:55.394Z,51.34
2022-08-27T00:43:24.170Z,51.21
2022-08-27T00:45:51.998Z,51.16
2022-08-27T00:48:20.365Z,51.38
2022-08-27T00:50:50.392Z,51.22
2022-08-27T00:53:20.142Z,51.16
2022-08-27T00:55:49.033Z,51.15
2022-08-27T00:58:19.033Z,51.24
2022-08-27T01:00:47.270Z,51.29
2022-08-27T01:03:15.077Z,51.44
2022-08-27T01:05:43.103Z,51.13
2022-08-27T01:08:12.915Z,51.28
2022-08-27T01:10:42.074Z,51.19
2022-08-27T01:13:10.119Z,51.31
2022-08-27T01:15:37.859Z,51.20
2022-08-27T01:18:06.820Z,51.29
2022-08-27T01:20:39.411Z,51.25
2022-08-27T01:23:11.110Z,51.40
2022-08-27T01:25:42.283Z,51.29
2022-08-27T01:28:10.158Z,51.16
2022-08-27T01:30:37.983Z,51.28
2022-08-27T01:33:10.343Z,51.07
2022-08-27T01:35:40.207Z,51.19
2022-08-27T01:38:09.481Z,51.13
2022-08-27T01:40:48.231Z,51.17
2022-08-27T01:43:15.959Z,51.23
2022-08-27T01:45:46.338Z,51.25
2022-08-27T01:48:14.073Z,51.22
2022-08-27T01:50:41.885Z,51.21
2022-08-27T01:53:11.499Z,50.90
2022-08-27T01:55:39.346Z,51.26
2022-08-27T01:58:09.811Z,51.24
2022-08-27T02:00:44.481Z,51.60
2022-08-27T02:03:12.363Z,51.36
2022-08-27T02:05:44.630Z,51.39
2022-08-27T02:08:13.190Z,51.33
2022-08-27T02:10:41.190Z,51.05
2022-08-27T02:13:10.295Z,51.42
2022-08-27T02:15:38.092Z,51.46
2022-08-27T02:18:05.953Z,51.13
2022-08-27T02:20:33.738Z,51.59
2022-08-27T02:23:01.546Z,51.41
2022-08-27T02:25:29.725Z,51.52
2022-08-27T02:28:00.181Z,51.26
2022-08-27T02:30:32.118Z,51.43
2022-08-27T02:33:00.927Z,51.36
2022-08-27T02:35:29.342Z,51.25
2022-08-27T02:37:57.087Z,51.21
2022-08-27T02:40:25.516Z,51.44
2022-08-27T02:42:53.302Z,51.36
2022-08-27T02:45:21.116Z,51.28
2022-08-27T02:47:50.229Z,51.28
2022-08-27T02:50:18.010Z,51.32
2022-08-27T02:52:46.613Z,51.32
2022-08-27T02:55:17.322Z,51.43
2022-08-27T02:57:45.246Z,51.43
2022-08-27T03:00:14.660Z,51.24
2022-08-27T03:02:42.427Z,51.29
2022-08-27T03:05:12.972Z,51.40
2022-08-27T03:07:40.686Z,51.24
2022-08-27T03:10:08.752Z,51.21
2022-08-27T03:12:36.871Z,51.04
2022-08-27T03:15:04.742Z,51.23
2022-08-27T03:17:50.211Z,51.30
2022-08-27T03:20:19.417Z,51.18
2022-08-27T03:22:47.170Z,51.22
2022-08-27T03:25:15.014Z,51.41
2022-08-27T03:27:42.726Z,51.41
2022-08-27T03:30:18.251Z,51.21
2022-08-27T03:32:46.292Z,51.14
2022-08-27T03:35:14.032Z,51.32
2022-08-27T03:37:43.380Z,51.18
2022-08-27T03:40:12.020Z,51.41
2022-08-27T03:42:41.686Z,51.29
2022-08-27T03:45:10.383Z,51.29
2022-08-27T03:47:38.155Z,51.23
2022-08-27T03:50:07.060Z,51.15
2022-08-27T03:52:34.974Z,51.29
2022-08-27T03:55:04.699Z,51.20
2022-08-27T03:57:32.431Z,51.16
2022-08-27T04:00:00.232Z,51.17
2022-08-27T04:02:28.023Z,51.30
2022-08-27T04:04:57.795Z,51.08
2022-08-27T04:07:25.572Z,51.21
2022-08-27T04:09:53.250Z,51.15
2022-08-27T04:12:22.323Z,51.15
2022-08-27T04:14:50.022Z,51.08
2022-08-27T04:17:17.751Z,51.23
2022-08-27T04:19:45.444Z,51.07
2022-08-27T04:22:14.950Z,51.22
2022-08-27T04:24:42.947Z,51.14
2022-08-27T04:27:11.096Z,51.18
2022-08-27T04:29:40.584Z,50.99
2022-08-27T04:32:08.321Z,51.04
2022-08-27T04:34:36.915Z,51.18
2022-08-27T04:37:05.446Z,50.99
2022-08-27T04:39:33.163Z,50.81
2022-08-27T04:42:01.298Z,50.98
2022-08-27T04:44:30.552Z,51.22
2022-08-27T04:47:00.766Z,50.94
2022-08-27T04:49:28.789Z,51.20
2022-08-27T04:51:56.534Z,50.88
2022-08-27T04:54:32.383Z,50.86
2022-08-27T04:57:01.164Z,51.09
2022-08-27T04:59:28.911Z,51.09
2022-08-27T05:01:56.664Z,51.04
2022-08-27T05:04:26.698Z,50.92
2022-08-27T05:06:54.870Z,50.86
2022-08-27T05:09:24.578Z,51.04
2022-08-27T05:11:55.591Z,50.95
2022-08-27T05:14:24.172Z,50.93
2022-08-27T05:16:51.960Z,50.92
2022-08-27T05:19:19.692Z,51.01
2022-08-27T05:21:49.432Z,50.68
2022-08-27T05:24:17.627Z,50.63
2022-08-27T05:26:45.582Z,50.87
2022-08-27T05:29:14.088Z,50.95
2022-08-27T05:31:42.138Z,50.79
2022-08-27T05:34:10.437Z,50.88
2022-08-27T05:36:48.964Z,50.71
2022-08-27T05:39:18.402Z,50.95
2022-08-27T05:41:46.126Z,50.88
2022-08-27T05:47:03.832Z,50.87
2022-08-27T05:49:31.794Z,50.80
2022-08-27T05:51:59.498Z,50.86
2022-08-27T05:54:28.596Z,50.75
2022-08-27T05:56:56.310Z,50.73
2022-08-27T05:59:53.175Z,50.94
2022-08-27T06:02:20.905Z,50.78
2022-08-27T06:04:48.909Z,50.61
2022-08-27T06:07:16.791Z,50.62
2022-08-27T06:09:45.874Z,50.44
2022-08-27T06:12:13.593Z,50.82
2022-08-27T06:14:41.347Z,50.68
2022-08-27T06:17:09.046Z,50.73
2022-08-27T06:19:36.794Z,50.54
2022-08-27T06:22:10.717Z,50.59
2022-08-27T06:24:40.095Z,50.83
2022-08-27T06:27:10.442Z,50.63
2022-08-27T06:29:38.196Z,50.62
2022-08-27T06:32:06.118Z,50.49
2022-08-27T06:34:34.165Z,50.81
2022-08-27T06:37:01.890Z,50.70
2022-08-27T06:39:30.839Z,50.71
2022-08-27T06:41:58.654Z,50.45
2022-08-27T06:44:27.795Z,50.59
2022-08-27T06:46:55.687Z,50.33
2022-08-27T06:49:23.947Z,50.42
2022-08-27T06:51:51.654Z,50.51
2022-08-27T06:54:20.104Z,50.68
2022-08-27T06:56:49.208Z,50.50
2022-08-27T06:59:17.849Z,50.49
2022-08-27T07:01:48.542Z,50.76
2022-08-27T07:04:19.190Z,50.65
2022-08-27T07:06:46.911Z,50.38
2022-08-27T07:09:14.717Z,50.64
2022-08-27T07:11:42.943Z,50.39
2022-08-27T07:14:10.732Z,50.72
2022-08-27T07:16:40.862Z,50.62
2022-08-27T07:19:10.651Z,50.36
2022-08-27T07:21:39.858Z,50.64
2022-08-27T07:24:09.144Z,50.67
2022-08-27T07:26:38.288Z,50.38
2022-08-27T07:29:06.205Z,50.66
2022-08-27T07:31:35.612Z,50.49
2022-08-27T07:34:03.424Z,50.61
2022-08-27T07:36:32.520Z,50.38
2022-08-27T07:39:01.562Z,50.62
2022-08-27T07:41:31.202Z,50.83
2022-08-27T07:44:17.342Z,50.56
2022-08-27T07:46:48.018Z,50.63
2022-08-27T07:49:17.348Z,50.77
2022-08-27T07:51:46.568Z,50.56
2022-08-27T07:54:14.404Z,50.76
2022-08-27T07:56:42.304Z,50.67
2022-08-27T07:59:12.419Z,50.44
2022-08-27T08:01:42.243Z,50.70
2022-08-27T08:04:10.457Z,50.57
2022-08-27T08:06:39.741Z,50.51
2022-08-27T08:09:10.651Z,50.58
2022-08-27T08:11:39.369Z,50.53
2022-08-27T08:14:07.142Z,50.28
2022-08-27T08:16:34.921Z,50.60
2022-08-27T08:19:02.704Z,50.67
2022-08-27T08:21:30.719Z,50.20
2022-08-27T08:23:58.752Z,50.44
2022-08-27T08:26:27.801Z,50.35
2022-08-27T08:28:55.592Z,50.44
2022-08-27T08:31:24.531Z,50.18
2022-08-27T08:33:52.904Z,50.39
2022-08-27T08:36:20.636Z,50.35
2022-08-27T08:38:49.492Z,50.52
2022-08-27T08:41:33.405Z,50.38
2022-08-27T08:44:05.475Z,50.34
2022-08-27T08:46:35.040Z,50.30
2022-08-27T08:49:05.620Z,50.21
2022-08-27T08:51:35.613Z,50.49
2022-08-27T08:54:03.686Z,50.36
2022-08-27T08:56:37.666Z,50.46
2022-08-27T08:59:09.400Z,50.48
2022-08-27T09:01:37.243Z,50.47
2022-08-27T09:04:06.003Z,50.37
2022-08-27T09:06:38.753Z,50.35
2022-08-27T09:09:13.665Z,50.14
2022-08-27T09:11:45.611Z,50.22
2022-08-27T09:14:20.401Z,50.24
2022-08-27T09:16:50.899Z,50.30
2022-08-27T09:19:24.795Z,50.49
2022-08-27T09:21:57.972Z,50.49
2022-08-27T09:24:29.881Z,50.33
2022-08-27T09:26:58.942Z,50.44
2022-08-27T09:29:27.525Z,50.53
2022-08-27T09:31:57.423Z,50.40
2022-08-27T09:34:25.173Z,50.44
2022-08-27T09:36:56.246Z,50.35
2022-08-27T09:39:28.799Z,50.32
2022-08-27T09:41:58.527Z,50.19
2022-08-27T09:44:26.506Z,50.45
2022-08-27T09:46:55.635Z,50.15
2022-08-27T09:49:24.217Z,50.10
2022-08-27T09:51:51.940Z,50.31
2022-08-27T09:54:44.135Z,50.06
2022-08-27T09:57:13.967Z,50.04
2022-08-27T09:59:44.252Z,49.94
2022-08-27T10:02:15.783Z,50.24
2022-08-27T10:04:51.069Z,50.22
2022-08-27T10:07:31.680Z,49.85
2022-08-27T10:10:03.499Z,49.79
2022-08-27T10:12:35.356Z,50.09
2022-08-27T10:15:03.709Z,50.00
2022-08-27T10:17:38.301Z,50.02
2022-08-27T10:20:11.609Z,49.91
2022-08-27T10:22:47.753Z,49.93
2022-08-27T10:25:24.311Z,49.85
2022-08-27T10:27:58.070Z,50.06
2022-08-27T10:30:29.248Z,49.86
2022-08-27T10:33:03.841Z,49.65
2022-08-27T10:35:35.078Z,49.87
2022-08-27T10:38:16.192Z,49.95
2022-08-27T10:40:46.425Z,49.77
2022-08-27T10:43:36.046Z,50.01
2022-08-27T10:46:06.056Z,50.01
2022-08-27T10:48:36.276Z,49.95
2022-08-27T10:51:08.457Z,50.12
2022-08-27T10:53:37.777Z,50.12
2022-08-27T10:56:13.918Z,49.95
2022-08-27T10:58:49.023Z,50.09
2022-08-27T11:01:20.804Z,50.18
2022-08-27T11:03:51.763Z,50.52
2022-08-27T11:06:24.288Z,50.18
2022-08-27T11:08:53.439Z,50.23
2022-08-27T11:12:09.989Z,49.98
2022-08-27T11:14:17.780Z,50.16
2022-08-27T11:16:48.125Z,50.34
2022-08-27T11:19:17.871Z,50.16
2022-08-27T11:21:47.617Z,50.00
2022-08-27T11:24:23.927Z,50.13
2022-08-27T11:26:51.857Z,50.36
2022-08-27T11:29:25.444Z,50.13
2022-08-27T11:31:56.731Z,50.42
2022-08-27T11:34:28.085Z,50.25
2022-08-27T11:37:14.249Z,50.13
2022-08-27T11:39:52.067Z,50.24
2022-08-27T11:42:21.852Z,50.43
2022-08-27T11:44:51.086Z,50.32
2022-08-27T11:47:21.426Z,50.33
2022-08-27T11:49:51.988Z,50.46
2022-08-27T11:52:24.952Z,50.65
2022-08-27T11:54:53.947Z,50.37
2022-08-27T11:57:29.959Z,50.26
2022-08-27T11:59:59.090Z,50.50
2022-08-27T12:02:27.736Z,50.42
2022-08-27T12:04:57.735Z,50.30
2022-08-27T12:07:27.351Z,50.54
2022-08-27T12:10:02.000Z,50.33
2022-08-27T12:12:34.359Z,50.35
2022-08-27T12:15:06.473Z,50.53
2022-08-27T12:17:38.817Z,50.33
2022-08-27T12:20:12.179Z,50.45
2022-08-27T12:23:06.775Z,50.41
2022-08-27T12:25:34.510Z,50.56
2022-08-27T12:28:04.804Z,50.72
2022-08-27T12:30:34.601Z,50.66
2022-08-27T12:33:10.012Z,50.54
2022-08-27T12:35:44.663Z,50.32
2022-08-27T12:38:16.037Z,50.43
2022-08-27T12:40:48.384Z,50.45
2022-08-27T12:43:19.138Z,50.52
2022-08-27T12:45:49.018Z,50.61
2022-08-27T12:48:20.525Z,50.45
2022-08-27T12:50:52.695Z,50.41
2022-08-27T12:53:43.687Z,50.57
2022-08-27T12:56:35.934Z,50.43
2022-08-27T12:59:10.920Z,50.54
2022-08-27T13:01:50.098Z,50.44
2022-08-27T13:04:21.539Z,50.49
2022-08-27T13:06:49.413Z,50.58
2022-08-27T13:09:17.131Z,50.52
2022-08-27T13:11:46.694Z,50.39
2022-08-27T13:14:16.486Z,50.51
2022-08-27T13:16:51.317Z,50.30
2022-08-27T13:19:22.878Z,50.34
2022-08-27T13:21:51.019Z,50.57
2022-08-27T13:24:20.953Z,50.52
2022-08-27T13:26:48.996Z,50.52
2022-08-27T13:29:16.748Z,50.31
2022-08-27T13:31:45.856Z,50.35
2022-08-27T13:34:13.820Z,50.47
2022-08-27T13:36:53.855Z,50.56
2022-08-27T13:39:21.735Z,50.24
2022-08-27T13:41:49.471Z,50.50
2022-08-27T13:44:21.789Z,50.51
2022-08-27T13:46:51.765Z,50.39
2022-08-27T13:49:21.923Z,50.41
2022-08-27T13:51:49.931Z,50.26
2022-08-27T13:54:18.034Z,50.17
2022-08-27T13:57:03.633Z,50.00
2022-08-27T13:59:31.765Z,50.30
2022-08-27T14:02:02.073Z,50.06
2022-08-27T14:04:39.434Z,50.24
2022-08-27T14:07:09.136Z,50.08
2022-08-27T14:09:42.758Z,50.21
2022-08-27T14:12:10.614Z,50.14
2022-08-27T14:14:38.972Z,50.02
2022-08-27T14:17:09.534Z,49.88
2022-08-27T14:19:39.998Z,49.86
2022-08-27T14:22:07.927Z,50.17
2022-08-27T14:24:35.648Z,50.18
2022-08-27T14:27:05.409Z,49.89
2022-08-27T14:29:33.115Z,50.04
2022-08-27T14:32:00.832Z,49.73
2022-08-27T14:34:29.888Z,49.94
2022-08-27T14:36:58.063Z,49.97
2022-08-27T14:39:26.458Z,49.87
2022-08-27T14:41:54.760Z,49.81
2022-08-27T14:44:22.658Z,49.81
2022-08-27T14:46:51.144Z,49.68
2022-08-27T14:49:23.188Z,49.90
2022-08-27T14:51:52.242Z,49.93
2022-08-27T14:54:19.985Z,50.01
2022-08-27T14:56:47.714Z,49.85
2022-08-27T14:59:15.436Z,49.99
2022-08-27T15:01:43.200Z,49.96
2022-08-27T15:04:10.944Z,49.80
2022-08-27T15:06:38.698Z,49.87
2022-08-27T15:09:07.892Z,49.75
2022-08-27T15:11:36.727Z,49.80
2022-08-27T15:14:05.788Z,49.79
2022-08-27T15:16:34.880Z,49.72
2022-08-27T15:19:02.893Z,49.61
2022-08-27T15:21:30.680Z,49.55
2022-08-27T15:23:59.478Z,49.70
2022-08-27T15:26:28.648Z,49.58
2022-08-27T15:28:56.347Z,49.82
2022-08-27T15:31:24.177Z,49.75
2022-08-27T15:33:51.931Z,50.11
2022-08-27T15:36:19.930Z,49.86
2022-08-27T15:38:47.615Z,50.00
2022-08-27T15:41:15.332Z,49.77
2022-08-27T15:43:44.481Z,49.78
2022-08-27T15:46:12.276Z,49.99
2022-08-27T15:48:40.002Z,49.96
2022-08-27T15:51:10.636Z,49.75
2022-08-27T15:53:38.787Z,49.65
2022-08-27T15:56:08.095Z,49.62
2022-08-27T15:58:36.296Z,49.76
2022-08-27T16:01:07.558Z,49.66
2022-08-27T16:03:36.045Z,49.89
2022-08-27T16:06:05.181Z,49.84
2022-08-27T16:08:34.442Z,49.83
2022-08-27T16:11:04.808Z,49.78
2022-08-27T16:13:32.704Z,50.06
2022-08-27T16:16:00.525Z,50.03
2022-08-27T16:18:30.488Z,49.88
2022-08-27T16:20:58.139Z,49.90
2022-08-27T16:23:26.155Z,49.57
2022-08-27T16:25:53.907Z,49.84
2022-08-27T16:28:21.622Z,49.86
2022-08-27T16:30:49.717Z,49.77
2022-08-27T16:33:17.475Z,49.95
2022-08-27T16:38:09.809Z,49.87
2022-08-27T16:40:39.662Z,49.95
2022-08-27T16:43:07.267Z,50.04
2022-08-27T16:45:35.041Z,49.91
2022-08-27T16:48:20.222Z,49.94
2022-08-27T16:50:47.937Z,49.91
2022-08-27T16:53:18.322Z,49.96
2022-08-27T16:55:47.424Z,49.75
2022-08-27T16:58:17.926Z,49.85
2022-08-27T17:00:45.919Z,49.97
2022-08-27T17:03:13.631Z,49.36
2022-08-27T17:05:41.347Z,49.28
2022-08-27T17:08:11.643Z,49.52
2022-08-27T17:10:45.762Z,49.71
2022-08-27T17:13:14.498Z,49.32
2022-08-27T17:15:42.307Z,49.92
2022-08-27T17:18:10.068Z,49.26
2022-08-27T17:20:37.860Z,49.71
2022-08-27T17:23:05.738Z,49.53
2022-08-27T17:25:33.960Z,49.50
2022-08-27T17:28:03.286Z,49.50
2022-08-27T17:30:31.801Z,49.61
2022-08-27T17:32:59.510Z,49.70
2022-08-27T17:35:27.242Z,49.67
2022-08-27T17:37:54.965Z,49.59
2022-08-27T17:40:22.788Z,49.57
2022-08-27T17:42:50.600Z,49.76
2022-08-27T17:45:19.658Z,49.55
2022-08-27T17:47:47.424Z,49.87
2022-08-27T17:50:15.115Z,49.71
2022-08-27T17:52:42.886Z,49.67
2022-08-27T17:55:10.816Z,49.69
2022-08-27T17:57:40.451Z,49.49
2022-08-27T18:00:10.507Z,49.90
2022-08-27T18:02:42.171Z,49.92
2022-08-27T18:05:13.090Z,49.67
2022-08-27T18:07:41.021Z,49.85
2022-08-27T18:10:10.026Z,49.73
2022-08-27T18:12:37.747Z,49.69
2022-08-27T18:15:07.859Z,49.64
2022-08-27T18:17:35.761Z,49.73
2022-08-27T18:20:05.520Z,49.52
2022-08-27T18:22:38.812Z,49.86
2022-08-27T18:25:09.460Z,49.84
2022-08-27T18:27:37.236Z,49.83
2022-08-27T18:30:05.837Z,49.79
2022-08-27T18:32:33.564Z,49.88
2022-08-27T18:35:04.739Z,49.65
2022-08-27T18:37:32.498Z,49.88
2022-08-27T18:40:00.335Z,49.59
2022-08-27T18:42:28.095Z,49.97
2022-08-27T18:44:55.928Z,49.71
2022-08-27T18:47:23.676Z,49.74
2022-08-27T18:49:51.575Z,49.84
2022-08-27T18:52:20.648Z,49.73
2022-08-27T18:54:48.391Z,49.95
2022-08-27T18:57:16.107Z,50.11
2022-08-27T18:59:43.798Z,49.88
2022-08-27T19:02:17.370Z,49.65
2022-08-27T19:04:45.884Z,49.70
2022-08-27T19:07:13.684Z,49.87
2022-08-27T19:09:43.030Z,50.04
2022-08-27T19:12:12.911Z,50.14
2022-08-27T19:14:43.735Z,49.91
2022-08-27T19:17:15.644Z,49.84
2022-08-27T19:19:43.760Z,49.84
2022-08-27T19:22:11.490Z,50.09
2022-08-27T19:24:40.088Z,50.15
2022-08-27T19:27:09.511Z,50.19
2022-08-27T19:29:37.231Z,50.16
2022-08-27T19:32:05.025Z,50.25
2022-08-27T19:34:32.781Z,50.17
2022-08-27T19:37:00.648Z,50.23
2022-08-27T19:39:28.396Z,50.27
2022-08-27T19:41:56.192Z,49.99
2022-08-27T19:44:25.225Z,50.25
2022-08-27T19:46:52.977Z,50.33
2022-08-27T19:49:20.719Z,50.21
2022-08-27T19:51:48.457Z,50.00
2022-08-27T19:54:16.164Z,50.24
2022-08-27T19:56:43.900Z,50.17
2022-08-27T19:59:20.640Z,49.94
2022-08-27T20:01:50.707Z,49.96
2022-08-27T20:04:18.488Z,49.83
2022-08-27T20:06:46.277Z,49.85
2022-08-27T20:09:16.137Z,50.03
2022-08-27T20:11:45.939Z,49.83
2022-08-27T20:14:13.686Z,49.89
2022-08-27T20:16:41.655Z,49.86
2022-08-27T20:19:11.428Z,49.86
2022-08-27T20:21:39.328Z,49.47
2022-08-27T20:24:07.369Z,49.72
2022-08-27T20:26:35.147Z,49.74
2022-08-27T20:29:02.993Z,49.71
2022-08-27T20:31:30.861Z,49.26
2022-08-27T20:33:58.579Z,49.40
2022-08-27T20:36:29.397Z,49.56
2022-08-27T20:38:57.137Z,49.35
2022-08-27T20:41:25.102Z,49.28
2022-08-27T20:43:52.938Z,49.30
2022-08-27T20:46:22.155Z,48.94
2022-08-27T20:48:49.900Z,49.29
2022-08-27T20:51:17.688Z,49.36
2022-08-27T20:53:46.728Z,49.15
2022-08-27T20:56:14.556Z,48.68
2022-08-27T20:59:00.066Z,48.65
2022-08-27T21:01:27.966Z,48.79
2022-08-27T21:03:57.789Z,48.61
2022-08-27T21:06:26.665Z,48.53
2022-08-27T21:08:55.924Z,48.72
2022-08-27T21:11:23.892Z,48.33
2022-08-27T21:13:56.395Z,48.67
2022-08-27T21:16:24.683Z,48.40
2022-08-27T21:18:53.684Z,47.99
2022-08-27T21:21:21.427Z,48.36
2022-08-27T21:23:49.353Z,48.53
2022-08-27T21:26:19.667Z,48.44
2022-08-27T21:28:47.356Z,48.55
2022-08-27T21:31:15.100Z,48.16
2022-08-27T21:33:42.878Z,47.98
2022-08-27T21:36:12.334Z,48.11
2022-08-27T21:38:40.323Z,48.02
2022-08-27T21:41:08.139Z,48.39
2022-08-27T21:43:37.222Z,48.41
2022-08-27T21:46:05.205Z,48.11
2022-08-27T21:48:32.974Z,47.91
2022-08-27T21:51:00.701Z,48.27
2022-08-27T21:53:30.135Z,48.21
2022-08-27T21:55:57.860Z,48.40
2022-08-27T21:58:26.739Z,48.13
2022-08-27T22:00:56.209Z,47.86
2022-08-27T22:03:24.384Z,48.01
2022-08-27T22:05:52.478Z,48.15
2022-08-27T22:08:21.210Z,47.89
2022-08-27T22:10:50.193Z,47.85
2022-08-27T22:13:18.003Z,48.06
2022-08-27T22:15:45.862Z,48.26
2022-08-27T22:18:15.109Z,47.70
2022-08-27T22:20:42.979Z,48.03
2022-08-27T22:23:11.312Z,47.94
2022-08-27T22:25:39.389Z,47.79
2022-08-27T22:28:07.109Z,47.62
2022-08-27T22:30:35.017Z,47.72
2022-08-27T22:33:02.710Z,47.70
2022-08-27T22:35:31.883Z,47.62
2022-08-27T22:37:59.793Z,47.55
2022-08-27T22:40:28.364Z,47.83
2022-08-27T22:42:56.416Z,47.82
2022-08-27T22:45:24.566Z,47.48
2022-08-27T22:47:52.430Z,47.61
2022-08-27T22:50:20.335Z,47.89
2022-08-27T22:52:49.700Z,47.67
2022-08-27T22:55:19.391Z,47.82
2022-08-27T22:57:47.453Z,47.85
2022-08-27T23:00:17.846Z,47.65
2022-08-27T23:02:45.856Z,47.29
2022-08-27T23:05:13.866Z,47.37
2022-08-27T23:07:42.083Z,47.28
2022-08-27T23:10:12.146Z,47.85
2022-08-27T23:12:39.648Z,47.82
2022-08-27T23:15:12.357Z,47.62
2022-08-27T23:17:40.077Z,47.72
2022-08-27T23:20:09.052Z,47.56
2022-08-27T23:22:37.510Z,47.77
2022-08-27T23:25:23.450Z,47.65
2022-08-27T23:27:53.673Z,47.73
2022-08-27T23:30:22.351Z,47.84
2022-08-27T23:32:53.832Z,47.58
2022-08-27T23:35:22.571Z,48.11
2022-08-27T23:37:50.483Z,47.89
2022-08-27T23:40:18.506Z,47.70
2022-08-27T23:42:46.369Z,47.96
2022-08-27T23:45:17.280Z,47.70
2022-08-27T23:47:45.011Z,47.64
2022-08-27T23:50:12.992Z,47.84
2022-08-27T23:52:41.057Z,47.77
2022-08-27T23:55:09.665Z,47.69
2022-08-27T23:57:37.481Z,48.13
